createdAt,value
2023-02-15T00:01:46.361Z,999
2023-02-15T00:03:47.638Z,999
2023-02-15T00:07:50.903Z,999
2023-02-15T00:09:52.532Z,999
2023-02-15T00:11:54.118Z,998.9
2023-02-15T00:13:56.048Z,998.9
2023-02-15T00:17:59.230Z,998.9
2023-02-15T00:20:00.607Z,998.8
2023-02-15T00:22:02.345Z,998.8
2023-02-15T00:24:03.921Z,998.8
2023-02-15T00:26:05.143Z,998.8
2023-02-15T00:28:06.290Z,998.7
2023-02-15T00:30:07.656Z,998.8
2023-02-15T00:32:09.591Z,998.8
2023-02-15T00:34:11.323Z,998.9
2023-02-15T00:36:13.207Z,998.8
2023-02-15T00:38:14.549Z,998.8
2023-02-15T00:40:16.153Z,998.7
2023-02-15T00:42:17.334Z,998.7
2023-02-15T00:44:18.990Z,998.7
2023-02-15T00:46:20.731Z,998.7
2023-02-15T00:50:23.923Z,998.8
2023-02-15T00:52:24.740Z,998.7
2023-02-15T00:54:26.677Z,998.8
2023-02-15T00:56:27.943Z,998.6
2023-02-15T01:00:30.616Z,998.6
2023-02-15T01:02:32.099Z,998.6
2023-02-15T01:04:34.136Z,998.6
2023-02-15T01:06:35.326Z,998.6
2023-02-15T01:08:36.918Z,998.6
2023-02-15T01:10:38.521Z,998.5
2023-02-15T01:12:39.669Z,998.6
2023-02-15T01:14:41.467Z,998.6
2023-02-15T01:16:42.869Z,998.6
2023-02-15T01:18:44.579Z,998.6
2023-02-15T01:20:46.480Z,998.5
2023-02-15T01:22:47.933Z,998.6
2023-02-15T01:24:48.981Z,998.6
2023-02-15T01:26:50.183Z,998.5
2023-02-15T01:28:52.078Z,998.6
2023-02-15T01:30:53.983Z,998.6
2023-02-15T01:32:55.284Z,998.5
2023-02-15T01:34:56.696Z,998.5
2023-02-15T01:36:58.444Z,998.5
2023-02-15T01:39:00.369Z,998.4
2023-02-15T01:41:02.243Z,998.5
2023-02-15T01:43:04.051Z,998.5
2023-02-15T01:45:05.245Z,998.5
2023-02-15T01:49:08.219Z,998.4
2023-02-15T01:51:10.051Z,998.5
2023-02-15T01:53:11.143Z,998.5
2023-02-15T01:55:13.028Z,998.4
2023-02-15T01:57:14.344Z,998.5
2023-02-15T01:59:15.650Z,998.4
2023-02-15T02:01:16.986Z,998.3
2023-02-15T02:05:19.756Z,998.3
2023-02-15T02:07:21.813Z,998.3
2023-02-15T02:09:23.795Z,998.3
2023-02-15T02:11:24.902Z,998.3
2023-02-15T02:13:26.614Z,998.3
2023-02-15T02:15:28.058Z,998.4
2023-02-15T02:17:30.050Z,998.3
2023-02-15T02:19:31.806Z,998.3
2023-02-15T02:21:33.629Z,998.3
2023-02-15T02:23:35.450Z,998.4
2023-02-15T02:25:36.606Z,998.3
2023-02-15T02:27:37.924Z,998.3
2023-02-15T02:29:38.966Z,998.3
2023-02-15T02:31:41.123Z,998.4
2023-02-15T02:33:42.336Z,998.2
2023-02-15T02:35:43.642Z,998.3
2023-02-15T02:37:45.244Z,998.2
2023-02-15T02:39:46.523Z,998.2
2023-02-15T02:41:48.207Z,998.2
2023-02-15T02:43:49.855Z,998.2
2023-02-15T02:47:53.129Z,998.3
2023-02-15T02:49:55.018Z,998.2
2023-02-15T02:51:56.216Z,998.3
2023-02-15T02:53:58.202Z,998.2
2023-02-15T02:55:59.600Z,998.2
2023-02-15T02:58:00.511Z,998.1
2023-02-15T03:00:02.386Z,998.1
2023-02-15T03:02:04.179Z,998
2023-02-15T03:04:05.647Z,998.2
2023-02-15T03:06:06.836Z,998.1
2023-02-15T03:08:08.752Z,998.1
2023-02-15T03:10:10.423Z,998.1
2023-02-15T03:12:12.438Z,998.2
2023-02-15T03:14:13.532Z,998.1
2023-02-15T03:16:15.297Z,998.2
2023-02-15T03:18:16.520Z,998
2023-02-15T03:20:17.855Z,998.2
2023-02-15T03:22:19.616Z,998.1
2023-02-15T03:24:20.837Z,998.1
2023-02-15T03:26:22.427Z,998
2023-02-15T03:28:24.223Z,998
2023-02-15T03:30:26.012Z,998
2023-02-15T03:32:27.217Z,997.9
2023-02-15T03:34:28.827Z,997.9
2023-02-15T03:36:30.461Z,997.9
2023-02-15T03:38:32.289Z,997.8
2023-02-15T03:40:33.905Z,997.8
2023-02-15T03:42:35.892Z,997.8
2023-02-15T03:44:37.712Z,997.8
2023-02-15T03:46:39.834Z,997.7
2023-02-15T03:48:41.667Z,997.7
2023-02-15T03:50:43.259Z,997.8
2023-02-15T03:52:44.524Z,997.7
2023-02-15T03:54:46.122Z,997.7
2023-02-15T03:56:47.845Z,997.7
2023-02-15T03:58:49.343Z,997.6
2023-02-15T04:00:51.017Z,997.7
2023-02-15T04:02:52.528Z,997.7
2023-02-15T04:04:53.617Z,997.8
2023-02-15T04:06:54.677Z,997.7
2023-02-15T04:08:56.520Z,997.7
2023-02-15T04:10:58.227Z,997.8
2023-02-15T04:13:00.119Z,997.7
2023-02-15T04:15:01.719Z,997.7
2023-02-15T04:17:03.664Z,997.8
2023-02-15T04:19:05.465Z,997.8
2023-02-15T04:21:07.404Z,997.8
2023-02-15T04:23:08.603Z,997.9
2023-02-15T04:25:09.908Z,997.7
2023-02-15T04:27:11.505Z,997.8
2023-02-15T04:29:12.904Z,997.8
2023-02-15T04:31:14.557Z,997.8
2023-02-15T04:33:15.565Z,997.8
2023-02-15T04:35:16.833Z,997.8
2023-02-15T04:39:19.298Z,997.8
2023-02-15T04:41:21.168Z,997.8
2023-02-15T04:43:23.209Z,997.7
2023-02-15T04:45:24.629Z,997.9
2023-02-15T04:48:09.903Z,997.8
2023-02-15T04:50:11.568Z,997.7
2023-02-15T04:54:14.080Z,997.8
2023-02-15T04:56:15.118Z,997.7
2023-02-15T04:58:16.462Z,997.7
2023-02-15T05:00:17.895Z,997.6
2023-02-15T05:02:19.762Z,997.6
2023-02-15T05:04:21.207Z,997.6
2023-02-15T05:06:23.244Z,997.6
2023-02-15T05:08:24.715Z,997.6
2023-02-15T05:10:26.164Z,997.5
2023-02-15T05:12:27.774Z,997.6
2023-02-15T05:14:28.870Z,997.5
2023-02-15T05:16:30.707Z,997.5
2023-02-15T05:18:31.881Z,997.5
2023-02-15T05:20:33.202Z,997.6
2023-02-15T05:22:35.048Z,997.6
2023-02-15T05:24:36.882Z,997.6
2023-02-15T05:26:38.460Z,997.5
2023-02-15T05:28:40.246Z,997.6
2023-02-15T05:32:43.700Z,997.7
2023-02-15T05:34:45.188Z,997.7
2023-02-15T05:36:46.370Z,997.6
2023-02-15T05:38:47.905Z,997.6
2023-02-15T05:40:50.233Z,997.7
2023-02-15T05:42:51.323Z,997.6
2023-02-15T05:44:52.519Z,997.5
2023-02-15T05:46:53.621Z,997.6
2023-02-15T05:48:55.420Z,997.6
2023-02-15T05:50:56.670Z,997.6
2023-02-15T05:52:58.113Z,997.6
2023-02-15T05:54:59.359Z,997.6
2023-02-15T05:57:01.026Z,997.7
2023-02-15T05:59:02.398Z,997.7
2023-02-15T06:01:03.512Z,997.8
2023-02-15T06:03:05.329Z,997.8
2023-02-15T06:05:07.274Z,997.7
2023-02-15T06:07:08.632Z,997.8
2023-02-15T06:09:10.112Z,997.8
2023-02-15T06:11:11.947Z,997.8
2023-02-15T06:15:14.876Z,997.7
2023-02-15T06:17:16.764Z,997.6
2023-02-15T06:19:18.107Z,997.6
2023-02-15T06:21:19.910Z,997.7
2023-02-15T06:23:21.319Z,997.7
2023-02-15T06:25:22.656Z,997.6
2023-02-15T06:27:24.017Z,997.6
2023-02-15T06:29:25.379Z,997.7
2023-02-15T06:31:26.985Z,997.6
2023-02-15T06:33:28.246Z,997.8
2023-02-15T06:35:30.224Z,997.9
2023-02-15T06:37:31.410Z,997.9
2023-02-15T06:39:33.198Z,998
2023-02-15T06:41:34.773Z,997.9
2023-02-15T06:43:36.554Z,997.9
2023-02-15T06:45:38.043Z,997.9
2023-02-15T06:47:39.614Z,997.8
2023-02-15T06:49:40.952Z,997.7
2023-02-15T06:51:51.103Z,997.8
2023-02-15T06:53:43.482Z,997.8
2023-02-15T06:55:45.325Z,997.9
2023-02-15T06:57:47.192Z,997.8
2023-02-15T06:59:48.642Z,997.8
2023-02-15T07:01:49.924Z,997.9
2023-02-15T07:03:51.046Z,997.8
2023-02-15T07:05:52.600Z,997.8
2023-02-15T07:07:54.586Z,997.8
2023-02-15T07:09:56.248Z,997.9
2023-02-15T07:13:59.211Z,997.8
2023-02-15T07:16:00.648Z,997.8
2023-02-15T07:18:02.103Z,997.7
2023-02-15T07:20:03.673Z,997.7
2023-02-15T07:22:05.100Z,997.7
2023-02-15T07:24:06.769Z,997.8
2023-02-15T07:26:08.619Z,997.8
2023-02-15T07:28:10.648Z,997.8
2023-02-15T07:30:11.986Z,997.9
2023-02-15T07:32:13.076Z,997.9
2023-02-15T07:34:14.363Z,998
2023-02-15T07:36:15.643Z,997.9
2023-02-15T07:38:17.060Z,998
2023-02-15T07:40:18.482Z,998
2023-02-15T07:42:20.005Z,998
2023-02-15T07:44:21.170Z,998
2023-02-15T07:46:23.227Z,997.9
2023-02-15T07:48:25.011Z,997.9
2023-02-15T07:50:25.466Z,998
2023-02-15T07:52:27.448Z,997.9
2023-02-15T07:56:33.319Z,997.9
2023-02-15T07:58:32.789Z,997.9
2023-02-15T08:00:33.878Z,997.8
2023-02-15T08:02:35.048Z,997.9
2023-02-15T08:04:44.154Z,997.8
2023-02-15T08:06:37.315Z,997.8
2023-02-15T08:08:38.993Z,997.8
2023-02-15T08:10:40.412Z,997.8
2023-02-15T08:12:42.176Z,997.7
2023-02-15T08:14:43.486Z,997.7
2023-02-15T08:16:45.490Z,997.8
2023-02-15T08:18:47.130Z,997.7
2023-02-15T08:22:50.571Z,997.7
2023-02-15T08:24:51.986Z,997.7
2023-02-15T08:26:53.236Z,997.7
2023-02-15T08:28:54.975Z,997.6
2023-02-15T08:30:56.216Z,997.6
2023-02-15T08:32:57.321Z,997.7
2023-02-15T08:34:58.875Z,997.8
2023-02-15T08:37:00.259Z,997.8
2023-02-15T08:39:02.067Z,997.9
2023-02-15T08:41:03.795Z,997.7
2023-02-15T08:43:04.679Z,997.8
2023-02-15T08:45:06.412Z,997.8
2023-02-15T08:47:07.836Z,997.8
2023-02-15T08:49:09.478Z,997.8
2023-02-15T08:51:11.069Z,997.8
2023-02-15T08:53:12.472Z,997.8
2023-02-15T08:55:14.391Z,997.7
2023-02-15T08:57:15.585Z,997.7
2023-02-15T08:59:17.414Z,997.7
2023-02-15T09:01:18.687Z,997.8
2023-02-15T09:03:20.330Z,997.7
2023-02-15T09:05:22.235Z,997.6
2023-02-15T09:07:23.918Z,997.7
2023-02-15T09:09:25.872Z,997.7
2023-02-15T09:11:27.323Z,997.8
2023-02-15T09:15:29.771Z,997.7
2023-02-15T09:17:31.604Z,997.7
2023-02-15T09:21:34.621Z,997.7
2023-02-15T09:23:35.765Z,997.7
2023-02-15T09:25:37.225Z,997.7
2023-02-15T09:27:38.492Z,997.6
2023-02-15T09:29:48.873Z,997.6
2023-02-15T09:31:41.618Z,997.6
2023-02-15T09:33:42.793Z,997.5
2023-02-15T09:35:44.629Z,997.6
2023-02-15T09:37:46.231Z,997.5
2023-02-15T09:39:49.173Z,997.5
2023-02-15T09:41:48.859Z,997.5
2023-02-15T09:43:50.137Z,997.5
2023-02-15T09:45:51.179Z,997.4
2023-02-15T09:47:53.093Z,997.5
2023-02-15T09:49:54.744Z,997.5
2023-02-15T09:51:56.541Z,997.5
2023-02-15T09:53:57.646Z,997.5
2023-02-15T09:55:59.403Z,997.4
2023-02-15T09:58:00.896Z,997.5
2023-02-15T10:00:02.319Z,997.3
2023-02-15T10:02:03.446Z,997.5
2023-02-15T10:04:04.919Z,997.4
2023-02-15T10:06:06.596Z,997.4
2023-02-15T10:08:08.416Z,997.4
2023-02-15T10:10:10.181Z,997.3
2023-02-15T10:12:11.411Z,997.2
2023-02-15T10:14:13.211Z,997.3
2023-02-15T10:16:14.393Z,997.3
2023-02-15T10:18:15.983Z,997.3
2023-02-15T10:20:17.813Z,997.2
2023-02-15T10:22:19.596Z,997.2
2023-02-15T10:24:20.754Z,997.2
2023-02-15T10:26:21.904Z,997.1
2023-02-15T10:28:23.334Z,997
2023-02-15T10:30:24.570Z,996.9
2023-02-15T10:32:26.631Z,997.1
2023-02-15T10:34:28.211Z,996.9
2023-02-15T10:36:30.128Z,997.1
2023-02-15T10:38:31.662Z,997
2023-02-15T10:40:33.505Z,997
2023-02-15T10:42:34.979Z,997
2023-02-15T10:44:36.579Z,997.1
2023-02-15T10:46:38.198Z,996.9
2023-02-15T10:48:39.268Z,997
2023-02-15T10:52:41.626Z,996.9
2023-02-15T10:54:43.190Z,997
2023-02-15T10:56:44.962Z,997
2023-02-15T10:58:45.990Z,997
2023-02-15T11:00:47.059Z,996.9
2023-02-15T11:02:48.510Z,996.9
2023-02-15T11:04:50.245Z,996.8
2023-02-15T11:06:51.833Z,996.9
2023-02-15T11:08:53.205Z,996.8
2023-02-15T11:10:54.282Z,996.9
2023-02-15T11:12:55.322Z,996.8
2023-02-15T11:14:56.961Z,996.7
2023-02-15T11:16:58.040Z,996.8
2023-02-15T11:18:59.343Z,996.7
2023-02-15T11:21:00.941Z,996.8
2023-02-15T11:23:02.914Z,996.8
2023-02-15T11:25:04.740Z,996.7
2023-02-15T11:27:06.005Z,996.7
2023-02-15T11:29:07.330Z,996.7
2023-02-15T11:31:09.185Z,996.7
2023-02-15T11:33:54.748Z,996.6
2023-02-15T11:35:56.519Z,996.7
2023-02-15T11:37:57.720Z,996.7
2023-02-15T11:39:58.998Z,996.6
2023-02-15T11:42:00.841Z,996.6
2023-02-15T11:44:01.916Z,996.5
2023-02-15T11:46:03.496Z,996.6
2023-02-15T11:48:04.516Z,996.5
2023-02-15T11:50:06.171Z,996.5
2023-02-15T11:52:07.184Z,996.5
2023-02-15T11:56:09.620Z,996.4
2023-02-15T11:58:10.556Z,996.4
2023-02-15T12:00:11.476Z,996.2
2023-02-15T12:02:13.370Z,996.4
2023-02-15T12:06:16.244Z,996.2
2023-02-15T12:08:17.859Z,996.3
2023-02-15T12:12:20.967Z,996.3
2023-02-15T12:14:21.904Z,996.3
2023-02-15T12:16:23.019Z,996.2
2023-02-15T12:18:24.912Z,996.3
2023-02-15T12:20:26.153Z,996.3
2023-02-15T12:22:27.457Z,996.3
2023-02-15T12:24:28.822Z,996.3
2023-02-15T12:26:30.437Z,996.3
2023-02-15T12:28:32.219Z,996.3
2023-02-15T12:30:33.921Z,996.3
2023-02-15T12:32:35.086Z,996.3
2023-02-15T12:34:36.733Z,996.2
2023-02-15T12:36:38.582Z,996.3
2023-02-15T12:38:40.141Z,996.2
2023-02-15T12:40:41.592Z,996.2
2023-02-15T12:42:43.241Z,996.3
2023-02-15T12:44:44.770Z,996.2
2023-02-15T12:46:47.435Z,996.2
2023-02-15T12:48:47.436Z,996.1
2023-02-15T12:50:54.639Z,996.2
2023-02-15T12:52:49.673Z,996.1
2023-02-15T12:54:51.066Z,996.1
2023-02-15T12:56:52.807Z,996.1
2023-02-15T12:58:54.260Z,996
2023-02-15T13:00:55.249Z,996.1
2023-02-15T13:02:56.704Z,996.1
2023-02-15T13:04:57.869Z,996
2023-02-15T13:06:59.400Z,995.9
2023-02-15T13:11:02.804Z,995.9
2023-02-15T13:13:03.918Z,995.9
2023-02-15T13:15:05.622Z,995.8
2023-02-15T13:17:08.899Z,995.8
2023-02-15T13:19:08.919Z,995.7
2023-02-15T13:21:09.844Z,995.8
2023-02-15T13:23:12.261Z,995.7
2023-02-15T13:25:13.452Z,995.7
2023-02-15T13:27:15.923Z,995.6
2023-02-15T13:29:15.763Z,995.6
2023-02-15T13:31:17.587Z,995.6
2023-02-15T13:33:18.803Z,995.6
2023-02-15T13:35:20.180Z,995.5
2023-02-15T13:37:22.297Z,995.4
2023-02-15T13:39:24.104Z,995.4
2023-02-15T13:41:25.242Z,995.3
2023-02-15T13:43:27.146Z,995.4
2023-02-15T13:45:28.135Z,995.3
2023-02-15T13:47:29.030Z,995.4
2023-02-15T13:49:30.492Z,995.3
2023-02-15T13:51:31.940Z,995.4
2023-02-15T13:53:34.095Z,995.3
2023-02-15T13:55:34.618Z,995.3
2023-02-15T13:57:36.007Z,995.4
2023-02-15T13:59:37.009Z,995.3
2023-02-15T14:01:37.996Z,995.2
2023-02-15T14:03:39.121Z,995.3
2023-02-15T14:05:40.825Z,995.3
2023-02-15T14:07:42.225Z,995.4
2023-02-15T14:09:43.465Z,995.3
2023-02-15T14:11:45.013Z,995.3
2023-02-15T14:13:46.336Z,995.1
2023-02-15T14:15:47.248Z,995.3
2023-02-15T14:19:49.637Z,995.2
2023-02-15T14:21:50.617Z,995.2
2023-02-15T14:23:51.906Z,995.2
2023-02-15T14:25:53.065Z,995.3
2023-02-15T14:29:56.137Z,995.2
2023-02-15T14:31:57.224Z,995.2
2023-02-15T14:33:58.506Z,995.2
2023-02-15T14:35:59.684Z,995.2
2023-02-15T14:38:00.579Z,995.1
2023-02-15T14:40:01.655Z,995.1
2023-02-15T14:42:03.154Z,995
2023-02-15T14:44:04.701Z,995.1
2023-02-15T14:46:06.532Z,995
2023-02-15T14:48:08.134Z,995.1
2023-02-15T14:50:09.961Z,995
2023-02-15T14:52:10.855Z,995.1
2023-02-15T14:54:11.975Z,995.1
2023-02-15T14:56:13.980Z,995
2023-02-15T14:58:15.288Z,995
2023-02-15T15:00:16.488Z,995.1
2023-02-15T15:02:17.743Z,995.2
2023-02-15T15:04:27.310Z,995.1
2023-02-15T15:06:20.934Z,995.2
2023-02-15T15:08:23.232Z,995.1
2023-02-15T15:10:24.993Z,995.1
2023-02-15T15:12:26.166Z,995.2
2023-02-15T15:14:27.902Z,995.1
2023-02-15T15:18:30.704Z,995.1
2023-02-15T15:20:32.464Z,995.2
2023-02-15T15:22:34.057Z,995.1
2023-02-15T15:24:36.682Z,995
2023-02-15T15:26:38.294Z,995
2023-02-15T15:28:39.504Z,995
2023-02-15T15:30:40.970Z,995
2023-02-15T15:32:42.136Z,995
2023-02-15T15:34:44.459Z,994.9
2023-02-15T15:36:45.675Z,995
2023-02-15T15:38:46.753Z,995.1
2023-02-15T15:40:48.294Z,994.9
2023-02-15T15:42:49.645Z,995
2023-02-15T15:44:50.972Z,995
2023-02-15T15:46:52.716Z,995
2023-02-15T15:48:53.931Z,994.9
2023-02-15T15:50:55.450Z,995
2023-02-15T15:52:56.702Z,995
2023-02-15T15:54:58.227Z,995.1
2023-02-15T15:56:59.374Z,995.1
2023-02-15T15:59:01.073Z,995.2
2023-02-15T16:01:02.653Z,995.1
2023-02-15T16:03:03.878Z,995.1
2023-02-15T16:05:04.822Z,995
2023-02-15T16:07:06.711Z,995.1
2023-02-15T16:09:07.725Z,995.1
2023-02-15T16:11:09.124Z,995.2
2023-02-15T16:13:10.417Z,995.2
2023-02-15T16:17:25.671Z,995.2
2023-02-15T16:19:32.949Z,995.2
2023-02-15T16:21:16.027Z,995.1
2023-02-15T16:23:17.331Z,995.1
2023-02-15T16:25:29.824Z,995.1
2023-02-15T16:27:47.078Z,995.2
2023-02-15T16:33:24.901Z,995.2
2023-02-15T16:37:27.648Z,995.2
2023-02-15T16:39:28.928Z,995.3
2023-02-15T16:41:29.913Z,995.3
2023-02-15T16:43:31.412Z,995.4
2023-02-15T16:45:32.874Z,995.4
2023-02-15T16:47:34.629Z,995.4
2023-02-15T16:49:36.223Z,995.3
2023-02-15T16:51:37.911Z,995.3
2023-02-15T16:53:39.472Z,995.3
2023-02-15T16:55:41.226Z,995.4
2023-02-15T16:57:42.291Z,995.4
2023-02-15T16:59:44.028Z,995.4
2023-02-15T17:01:45.144Z,995.4
2023-02-15T17:03:47.179Z,995.4
2023-02-15T17:05:48.340Z,995.4
2023-02-15T17:07:49.807Z,995.4
2023-02-15T17:09:50.828Z,995.4
2023-02-15T17:11:52.161Z,995.4
2023-02-15T17:13:53.211Z,995.3
2023-02-15T17:15:54.754Z,995.4
2023-02-15T17:17:55.767Z,995.4
2023-02-15T17:19:57.278Z,995.3
2023-02-15T17:21:58.379Z,995.4
2023-02-15T17:26:02.005Z,995.4
2023-02-15T17:28:03.561Z,995.4
2023-02-15T17:30:05.364Z,995.4
2023-02-15T17:32:07.497Z,995.4
2023-02-15T17:36:11.135Z,995.4
2023-02-15T17:38:12.725Z,995.5
2023-02-15T17:40:14.044Z,995.4
2023-02-15T17:42:15.403Z,995.4
2023-02-15T17:44:17.078Z,995.4
2023-02-15T17:46:18.939Z,995.5
2023-02-15T17:48:20.416Z,995.5
2023-02-15T17:50:22.438Z,995.6
2023-02-15T17:52:24.204Z,995.6
2023-02-15T17:54:26.179Z,995.6
2023-02-15T17:56:27.752Z,995.6
2023-02-15T17:58:28.614Z,995.5
2023-02-15T18:00:30.176Z,995.6
2023-02-15T18:02:31.643Z,995.5
2023-02-15T18:04:33.369Z,995.6
2023-02-15T18:06:35.089Z,995.6
2023-02-15T18:08:36.371Z,995.5
2023-02-15T18:10:38.380Z,995.6
2023-02-15T18:12:39.916Z,995.6
2023-02-15T18:14:41.929Z,995.7
2023-02-15T18:19:28.662Z,995.7
2023-02-15T18:21:30.405Z,995.7
2023-02-15T18:23:31.988Z,995.7
2023-02-15T18:25:33.656Z,995.7
2023-02-15T18:27:35.393Z,995.7
2023-02-15T18:29:37.105Z,995.7
2023-02-15T18:31:38.739Z,995.6
2023-02-15T18:33:40.576Z,995.7
2023-02-15T18:35:41.668Z,995.7
2023-02-15T18:37:43.675Z,995.7
2023-02-15T18:39:45.376Z,995.6
2023-02-15T18:41:47.155Z,995.6
2023-02-15T18:43:48.441Z,995.7
2023-02-15T18:45:49.959Z,995.7
2023-02-15T18:47:51.419Z,995.7
2023-02-15T18:49:52.477Z,995.6
2023-02-15T18:51:54.304Z,995.6
2023-02-15T18:53:55.586Z,995.6
2023-02-15T18:55:57.027Z,995.7
2023-02-15T18:57:58.463Z,995.6
2023-02-15T19:02:01.951Z,995.6
2023-02-15T19:04:03.434Z,995.6
2023-02-15T19:06:04.937Z,995.6
2023-02-15T19:08:06.499Z,995.6
2023-02-15T19:10:07.812Z,995.6
2023-02-15T19:12:09.100Z,995.7
2023-02-15T19:14:11.096Z,995.5
2023-02-15T19:16:12.191Z,995.6
2023-02-15T19:18:13.599Z,995.6
2023-02-15T19:20:14.890Z,995.7
2023-02-15T19:22:15.995Z,995.7
2023-02-15T19:24:17.726Z,995.6
2023-02-15T19:26:19.737Z,995.7
2023-02-15T19:28:21.419Z,995.7
2023-02-15T19:30:23.379Z,995.7
2023-02-15T19:32:24.931Z,995.6
2023-02-15T19:34:26.338Z,995.7
2023-02-15T19:36:28.139Z,995.6
2023-02-15T19:38:29.214Z,995.6
2023-02-15T19:40:30.362Z,995.5
2023-02-15T19:42:31.817Z,995.4
2023-02-15T19:44:33.481Z,995.6
2023-02-15T19:46:34.876Z,995.6
2023-02-15T19:48:36.425Z,995.4
2023-02-15T19:50:37.916Z,995.5
2023-02-15T19:52:39.945Z,995.4
2023-02-15T19:54:41.212Z,995.5
2023-02-15T19:56:42.562Z,995.5
2023-02-15T20:00:45.785Z,995.4
2023-02-15T20:02:47.311Z,995.6
2023-02-15T20:04:48.863Z,995.6
2023-02-15T20:06:50.500Z,995.4
2023-02-15T20:08:51.696Z,995.4
2023-02-15T20:10:52.921Z,995.4
2023-02-15T20:12:54.682Z,995.5
2023-02-15T20:14:56.060Z,995.5
2023-02-15T20:16:57.313Z,995.4
2023-02-15T20:18:58.793Z,995.4
2023-02-15T20:23:01.797Z,995.4
2023-02-15T20:25:03.537Z,995.5
2023-02-15T20:27:04.915Z,995.3
2023-02-15T20:29:06.509Z,995.3
2023-02-15T20:31:08.243Z,995.2
2023-02-15T20:33:09.260Z,995.3
2023-02-15T20:35:10.976Z,995.3
2023-02-15T20:37:12.230Z,995.4
2023-02-15T20:41:15.288Z,995.4
2023-02-15T20:47:20.418Z,995.2
2023-02-15T20:49:21.786Z,995.3
2023-02-15T20:51:22.888Z,995.3
2023-02-15T20:53:24.753Z,995.3
2023-02-15T20:55:25.992Z,995.2
2023-02-15T20:57:27.237Z,995.4
2023-02-15T20:59:29.200Z,995.3
2023-02-15T21:01:30.838Z,995.2
2023-02-15T21:03:32.661Z,995.2
2023-02-15T21:05:34.189Z,995.2
2023-02-15T21:09:37.252Z,995.4
2023-02-15T21:11:39.201Z,995.3
2023-02-15T21:13:41.142Z,995.3
2023-02-15T21:15:42.916Z,995.4
2023-02-15T21:19:45.129Z,995.4
2023-02-15T21:21:46.937Z,995.4
2023-02-15T21:23:48.724Z,995.3
2023-02-15T21:25:49.980Z,995.3
2023-02-15T21:27:51.193Z,995.4
2023-02-15T21:29:52.523Z,995.3
2023-02-15T21:31:54.402Z,995.4
2023-02-15T21:33:55.674Z,995.3
2023-02-15T21:35:57.350Z,995.3
2023-02-15T21:37:58.709Z,995.3
2023-02-15T21:40:00.565Z,995.3
2023-02-15T21:42:02.498Z,995.4
2023-02-15T21:44:03.690Z,995.4
2023-02-15T21:46:05.559Z,995.4
2023-02-15T21:48:06.768Z,995.4
2023-02-15T21:50:08.175Z,995.4
2023-02-15T21:52:09.767Z,995.3
2023-02-15T21:54:10.618Z,995.4
2023-02-15T21:56:12.281Z,995.4
2023-02-15T21:58:13.647Z,995.4
2023-02-15T22:00:14.852Z,995.4
2023-02-15T22:02:15.854Z,995.4
2023-02-15T22:04:17.354Z,995.4
2023-02-15T22:08:20.417Z,995.5
2023-02-15T22:10:22.861Z,995.6
2023-02-15T22:12:23.528Z,995.5
2023-02-15T22:14:25.080Z,995.5
2023-02-15T22:16:26.890Z,995.6
2023-02-15T22:18:30.208Z,995.6
2023-02-15T22:20:30.015Z,995.6
2023-02-15T22:22:31.805Z,995.5
2023-02-15T22:24:33.440Z,995.6
2023-02-15T22:26:35.392Z,995.5
2023-02-15T22:28:36.539Z,995.5
2023-02-15T22:30:38.000Z,995.5
2023-02-15T22:32:39.814Z,995.5
2023-02-15T22:34:41.117Z,995.5
2023-02-15T22:36:42.570Z,995.5
2023-02-15T22:38:43.998Z,995.6
2023-02-15T22:40:45.818Z,995.5
2023-02-15T22:42:47.756Z,995.6
2023-02-15T22:44:49.291Z,995.5
2023-02-15T22:46:51.227Z,995.7
2023-02-15T22:50:54.892Z,995.6
2023-02-15T22:52:56.050Z,995.6
2023-02-15T22:54:57.222Z,995.7
2023-02-15T22:56:58.961Z,995.7
2023-02-15T22:59:00.529Z,995.6
2023-02-15T23:01:02.491Z,995.7
2023-02-15T23:03:03.424Z,995.6
2023-02-15T23:05:05.460Z,995.6
2023-02-15T23:07:06.857Z,995.6
2023-02-15T23:09:07.992Z,995.6
2023-02-15T23:11:09.648Z,995.7
2023-02-15T23:13:11.106Z,995.5
2023-02-15T23:15:12.837Z,995.6
2023-02-15T23:17:14.896Z,995.6
2023-02-15T23:19:16.513Z,995.6
2023-02-15T23:21:18.395Z,995.6
2023-02-15T23:23:20.121Z,995.6
2023-02-15T23:25:21.347Z,995.5
2023-02-15T23:27:23.128Z,995.5
2023-02-15T23:29:24.406Z,995.6
2023-02-15T23:31:26.351Z,995.5
2023-02-15T23:33:28.303Z,995.5
2023-02-15T23:35:29.828Z,995.6
2023-02-15T23:37:30.962Z,995.5
2023-02-15T23:39:32.438Z,995.4
2023-02-15T23:41:34.017Z,995.5
2023-02-15T23:43:35.871Z,995.6
2023-02-15T23:45:37.778Z,995.6
2023-02-15T23:47:39.329Z,995.5
2023-02-15T23:49:40.823Z,995.3
2023-02-15T23:51:42.753Z,995.3
2023-02-15T23:53:44.370Z,995.4
2023-02-15T23:55:45.643Z,995.3
2023-02-15T23:57:46.852Z,995.3
2023-02-15T23:59:48.830Z,995.3
